Terminal Aerodrome Forecast
Issued by NWS Missoula, MT

Home | Current Version | Previous Version | Text Only | Print | Product List | Glossary On
Versions: 1 2 3 4 5 6 7 8 9 10 11 12 13 14 15 16 17 18 19 20 21
913
FTUS45 KMSO 131137
TAFGPI
TAF
KGPI 131137Z 1312/1412 18008KT P6SM BKN050 OVC060
     FM131430 19010KT 5SM -SHRA BKN030 OVC045
     FM131900 21012G20KT P6SM -SHRASN SCT030 BKN060
     FM140100 20007KT P6SM BKN060
     FM140400 18003KT 5SM -SHSN SCT025 OVC060=

USA.gov is the U.S. government's official web portal to all federal, state and local government web resources and services.